createdAt,value
2022-12-26T00:00:34.820Z,21.900
2022-12-26T00:01:24.486Z,23.100
2022-12-26T00:02:26.024Z,24.600
2022-12-26T00:03:22.394Z,23.900
2022-12-26T00:04:51.927Z,20.200
2022-12-26T00:05:29.292Z,22.500
2022-12-26T00:06:24.933Z,20.650
2022-12-26T00:07:51.416Z,21.300
2022-12-26T00:08:33.524Z,20.750
2022-12-26T00:09:26.224Z,21.100
2022-12-26T00:10:24.784Z,19.850
2022-12-26T00:11:30.434Z,16.850
2022-12-26T00:12:40.731Z,19.100
2022-12-26T00:13:38.471Z,18.200
2022-12-26T00:14:33.838Z,18.900
2022-12-26T00:15:37.304Z,16.600
2022-12-26T00:16:21.061Z,17.700
2022-12-26T00:17:24.209Z,16.250
2022-12-26T00:18:31.809Z,17.150
2022-12-26T00:19:27.263Z,18.750
2022-12-26T00:20:22.599Z,18.600
2022-12-26T00:21:33.621Z,15.950
2022-12-26T00:22:30.968Z,17.400
2022-12-26T00:23:29.525Z,15.100
2022-12-26T00:24:24.958Z,15.950
2022-12-26T00:25:23.358Z,16.850
2022-12-26T00:26:28.169Z,17.200
2022-12-26T00:27:24.273Z,18.200
2022-12-26T00:28:34.281Z,17.250
2022-12-26T00:29:27.625Z,13.900
2022-12-26T00:30:25.038Z,17.000
2022-12-26T00:31:20.079Z,14.800
2022-12-26T00:32:22.009Z,15.700
2022-12-26T00:33:20.134Z,14.500
2022-12-26T00:34:36.162Z,15.100
2022-12-26T00:35:32.262Z,15.000
2022-12-26T00:36:28.510Z,15.600
2022-12-26T00:37:26.900Z,16.000
2022-12-26T00:38:20.079Z,15.300
2022-12-26T00:39:24.513Z,15.050
2022-12-26T00:40:27.415Z,15.250
2022-12-26T00:41:23.664Z,13.500
2022-12-26T00:42:31.951Z,15.000
2022-12-26T00:43:31.327Z,14.600
2022-12-26T00:44:23.896Z,13.600
2022-12-26T00:45:37.189Z,14.250
2022-12-26T00:46:30.076Z,16.500
2022-12-26T00:47:22.790Z,15.800
2022-12-26T00:48:21.530Z,15.150
2022-12-26T00:50:14.790Z,14.100
2022-12-26T00:50:34.262Z,14.400
2022-12-26T00:51:26.032Z,15.850
2022-12-26T00:52:19.882Z,15.900
2022-12-26T00:53:33.631Z,15.300
2022-12-26T00:54:27.447Z,16.500
2022-12-26T00:55:25.748Z,15.700
2022-12-26T00:56:32.554Z,14.400
2022-12-26T00:57:29.529Z,17.250
2022-12-26T00:58:23.987Z,14.800
2022-12-26T00:59:22.340Z,16.300
2022-12-26T01:00:33.510Z,17.700
2022-12-26T01:01:26.432Z,15.600
2022-12-26T01:02:26.487Z,16.750
2022-12-26T01:03:22.989Z,16.000
2022-12-26T01:04:28.838Z,16.900
2022-12-26T01:05:26.011Z,15.900
2022-12-26T01:06:20.340Z,14.600
2022-12-26T01:07:30.008Z,16.100
2022-12-26T01:08:27.934Z,15.600
2022-12-26T01:09:22.292Z,14.300
2022-12-26T01:10:20.558Z,12.100
2022-12-26T01:11:28.645Z,13.150
2022-12-26T01:12:25.133Z,16.600
2022-12-26T01:13:21.808Z,14.800
2022-12-26T01:14:31.499Z,14.100
2022-12-26T01:15:26.080Z,14.100
2022-12-26T01:16:23.443Z,13.150
2022-12-26T01:17:33.514Z,13.300
2022-12-26T01:18:22.562Z,11.300
2022-12-26T01:19:23.886Z,12.750
2022-12-26T01:20:20.643Z,10.400
2022-12-26T01:21:25.583Z,13.800
2022-12-26T01:22:28.713Z,13.500
2022-12-26T01:23:22.964Z,13.950
2022-12-26T01:24:34.033Z,12.500
2022-12-26T01:25:29.889Z,13.450
2022-12-26T01:26:20.420Z,12.350
2022-12-26T01:27:20.215Z,12.000
2022-12-26T01:28:26.737Z,10.250
2022-12-26T01:29:26.185Z,12.700
2022-12-26T01:30:23.653Z,12.100
2022-12-26T01:31:34.115Z,14.650
2022-12-26T01:32:20.540Z,12.700
2022-12-26T01:33:24.063Z,13.300
2022-12-26T01:34:21.175Z,11.900
2022-12-26T01:35:30.519Z,13.200
2022-12-26T01:36:26.029Z,13.700
2022-12-26T01:37:22.817Z,14.100
2022-12-26T01:38:32.408Z,13.200
2022-12-26T01:39:25.080Z,13.400
2022-12-26T01:40:23.957Z,14.050
2022-12-26T01:41:21.203Z,14.300
2022-12-26T01:42:31.343Z,11.900
2022-12-26T01:43:26.424Z,12.450
2022-12-26T01:44:24.708Z,14.200
2022-12-26T01:45:34.377Z,13.350
2022-12-26T01:46:28.399Z,11.600
2022-12-26T01:47:25.498Z,12.150
2022-12-26T01:48:21.151Z,13.850
2022-12-26T01:49:30.279Z,13.000
2022-12-26T01:50:21.251Z,13.150
2022-12-26T01:51:23.369Z,13.500
2022-12-26T01:52:34.296Z,12.550
2022-12-26T01:53:29.353Z,13.000
2022-12-26T01:54:37.623Z,15.800
2022-12-26T01:55:20.194Z,12.800
2022-12-26T01:56:23.577Z,13.500
2022-12-26T01:57:27.310Z,13.100
2022-12-26T01:58:22.168Z,15.000
2022-12-26T01:59:35.164Z,13.100
2022-12-26T02:00:30.254Z,14.500
2022-12-26T02:01:26.066Z,12.900
2022-12-26T02:05:26.435Z,12.600
2022-12-26T02:06:44.775Z,13.200
2022-12-26T02:07:39.710Z,11.850
2022-12-26T02:14:28.960Z,14.850
2022-12-26T02:15:27.630Z,13.500
2022-12-26T02:16:20.422Z,14.550
2022-12-26T02:17:34.230Z,13.400
2022-12-26T02:18:28.826Z,13.550
2022-12-26T02:19:22.885Z,9.800
2022-12-26T02:20:33.917Z,13.700
2022-12-26T02:21:28.178Z,11.350
2022-12-26T02:22:25.816Z,12.600
2022-12-26T02:23:20.363Z,9.700
2022-12-26T02:24:38.712Z,12.500
2022-12-26T02:25:32.503Z,13.550
2022-12-26T02:26:24.312Z,10.800
2022-12-26T02:27:34.532Z,12.000
2022-12-26T02:28:28.829Z,10.400
2022-12-26T02:29:22.289Z,11.450
2022-12-26T02:30:21.103Z,13.650
2022-12-26T02:31:30.530Z,10.950
2022-12-26T02:32:28.234Z,12.100
2022-12-26T02:33:22.047Z,12.050
2022-12-26T02:34:20.820Z,14.100
2022-12-26T02:35:30.405Z,13.200
2022-12-26T02:36:23.706Z,13.650
2022-12-26T02:37:22.870Z,12.900
2022-12-26T02:38:32.592Z,11.200
2022-12-26T02:39:43.835Z,13.350
2022-12-26T02:40:23.047Z,14.300
2022-12-26T02:41:26.806Z,13.000
2022-12-26T02:42:28.316Z,12.450
2022-12-26T02:43:25.597Z,12.600
2022-12-26T02:44:21.207Z,11.650
2022-12-26T02:45:30.323Z,12.600
2022-12-26T02:46:24.449Z,13.450
2022-12-26T02:47:22.526Z,13.900
2022-12-26T02:48:29.092Z,12.400
2022-12-26T02:49:23.268Z,12.400
2022-12-26T02:50:24.477Z,12.700
2022-12-26T02:51:19.802Z,13.600
2022-12-26T02:52:32.136Z,12.500
2022-12-26T02:53:26.004Z,13.450
2022-12-26T02:54:24.001Z,11.800
2022-12-26T02:55:22.252Z,13.050
2022-12-26T02:56:28.308Z,11.400
2022-12-26T02:57:20.850Z,13.950
2022-12-26T02:58:20.614Z,14.250
2022-12-26T02:59:54.306Z,12.550
2022-12-26T03:00:27.645Z,13.600
2022-12-26T03:01:22.800Z,13.250
2022-12-26T03:02:25.871Z,11.800
2022-12-26T03:03:26.642Z,11.950
2022-12-26T03:04:25.373Z,12.850
2022-12-26T03:05:20.730Z,15.700
2022-12-26T03:06:20.248Z,13.050
2022-12-26T03:07:25.839Z,12.450
2022-12-26T03:08:22.310Z,12.400
2022-12-26T03:09:34.373Z,12.550
2022-12-26T03:10:28.219Z,14.400
2022-12-26T03:11:28.110Z,10.950
2022-12-26T03:12:20.418Z,11.600
2022-12-26T03:13:25.125Z,10.500
2022-12-26T03:14:23.497Z,12.950
2022-12-26T03:15:22.381Z,13.600
2022-12-26T03:16:31.769Z,15.000
2022-12-26T03:17:27.827Z,12.800
2022-12-26T03:18:58.272Z,12.900
2022-12-26T03:19:24.016Z,12.500
2022-12-26T03:20:26.116Z,14.800
2022-12-26T03:21:26.222Z,15.100
2022-12-26T03:22:22.253Z,15.900
2022-12-26T03:23:35.640Z,16.650
2022-12-26T03:24:21.959Z,13.000
2022-12-26T03:25:24.147Z,11.950
2022-12-26T03:26:20.359Z,13.800
2022-12-26T03:27:20.724Z,14.850
2022-12-26T03:28:26.228Z,13.000
2022-12-26T03:29:22.210Z,15.750
2022-12-26T03:30:32.742Z,14.600
2022-12-26T03:31:26.849Z,13.250
2022-12-26T03:32:24.061Z,15.750
2022-12-26T03:33:22.172Z,18.000
2022-12-26T03:34:25.175Z,14.150
2022-12-26T03:35:26.076Z,16.950
2022-12-26T03:36:22.201Z,17.200
2022-12-26T03:37:48.755Z,15.750
2022-12-26T03:38:29.128Z,17.250
2022-12-26T03:39:24.060Z,19.600
2022-12-26T03:40:20.200Z,18.650
2022-12-26T03:41:30.413Z,19.400
2022-12-26T03:42:23.570Z,16.550
2022-12-26T03:43:22.157Z,17.200
2022-12-26T03:44:32.404Z,19.500
2022-12-26T03:45:30.630Z,17.600
2022-12-26T03:46:24.561Z,20.200
2022-12-26T03:47:20.801Z,20.000
2022-12-26T03:48:27.392Z,20.350
2022-12-26T03:49:26.507Z,17.900
2022-12-26T03:50:23.419Z,17.600
2022-12-26T03:51:34.220Z,18.100
2022-12-26T03:52:28.463Z,14.450
2022-12-26T03:53:22.044Z,19.700
2022-12-26T03:54:20.059Z,15.300
2022-12-26T03:55:30.337Z,19.450
2022-12-26T03:56:32.730Z,18.200
2022-12-26T03:57:23.482Z,15.850
2022-12-26T03:58:32.257Z,12.900
2022-12-26T03:59:23.798Z,15.800
2022-12-26T04:00:24.507Z,18.400
2022-12-26T04:01:21.314Z,16.900
2022-12-26T04:02:31.705Z,18.900
2022-12-26T04:03:26.595Z,16.550
2022-12-26T04:04:22.462Z,17.800
2022-12-26T04:05:22.538Z,15.600
2022-12-26T04:06:29.335Z,16.350
2022-12-26T04:07:26.517Z,13.500
2022-12-26T04:08:20.517Z,16.800
2022-12-26T04:09:32.221Z,16.800
2022-12-26T04:10:20.245Z,16.300
2022-12-26T04:11:22.687Z,17.450
2022-12-26T04:12:25.176Z,15.950
2022-12-26T04:13:28.713Z,13.200
2022-12-26T04:14:24.288Z,14.650
2022-12-26T04:15:20.448Z,14.950
2022-12-26T04:16:25.781Z,18.000
2022-12-26T04:17:26.429Z,15.700
2022-12-26T04:18:25.861Z,13.100
2022-12-26T04:19:29.177Z,13.600
2022-12-26T04:20:23.922Z,16.100
2022-12-26T04:21:24.506Z,16.450
2022-12-26T04:22:20.059Z,12.700
2022-12-26T04:23:31.106Z,17.100
2022-12-26T04:24:26.224Z,15.000
2022-12-26T04:25:49.540Z,18.200
2022-12-26T04:26:33.861Z,16.450
2022-12-26T04:27:23.215Z,14.800
2022-12-26T04:28:19.188Z,16.900
2022-12-26T04:29:22.429Z,17.400
2022-12-26T04:30:32.546Z,15.400
2022-12-26T04:31:26.926Z,17.200
2022-12-26T04:32:22.952Z,13.200
2022-12-26T04:33:26.746Z,16.700
2022-12-26T04:34:31.961Z,17.750
2022-12-26T04:35:24.181Z,18.500
2022-12-26T04:36:20.270Z,21.150
2022-12-26T04:37:35.271Z,20.100
2022-12-26T04:38:26.736Z,22.050
2022-12-26T04:39:24.387Z,23.300
2022-12-26T04:40:20.997Z,22.600
2022-12-26T04:41:30.379Z,23.100
2022-12-26T04:42:27.937Z,18.800
2022-12-26T04:43:49.786Z,20.600
2022-12-26T04:44:23.740Z,19.250
2022-12-26T04:45:28.300Z,19.500
2022-12-26T04:46:22.496Z,19.300
2022-12-26T04:47:25.018Z,18.600
2022-12-26T04:48:28.437Z,19.400
2022-12-26T04:49:32.432Z,21.300
2022-12-26T04:50:27.223Z,19.850
2022-12-26T04:51:30.424Z,18.600
2022-12-26T04:52:26.633Z,19.000
2022-12-26T04:53:22.641Z,20.050
2022-12-26T04:54:26.531Z,18.800
2022-12-26T04:55:20.603Z,17.050
2022-12-26T04:56:24.762Z,17.350
2022-12-26T04:57:23.172Z,17.900
2022-12-26T04:58:22.668Z,17.100
2022-12-26T04:59:26.532Z,17.400
2022-12-26T05:00:22.615Z,17.350
2022-12-26T05:01:25.570Z,20.600
2022-12-26T05:02:30.460Z,14.650
2022-12-26T05:03:24.522Z,13.750
2022-12-26T05:04:21.967Z,13.500
2022-12-26T05:05:26.611Z,13.250
2022-12-26T05:06:22.003Z,13.800
2022-12-26T05:07:22.509Z,14.500
2022-12-26T05:08:45.265Z,15.100
2022-12-26T05:09:28.337Z,13.300
2022-12-26T05:10:25.675Z,14.650
2022-12-26T05:11:21.016Z,13.000
2022-12-26T05:12:22.393Z,13.950
2022-12-26T05:13:21.954Z,14.100
2022-12-26T05:14:22.440Z,13.900
2022-12-26T05:15:33.550Z,13.600
2022-12-26T05:16:22.538Z,18.450
2022-12-26T05:17:24.321Z,13.700
2022-12-26T05:18:22.152Z,12.150
2022-12-26T05:19:31.813Z,12.400
2022-12-26T05:20:28.447Z,11.600
2022-12-26T05:21:22.311Z,13.050
2022-12-26T05:22:34.515Z,17.200
2022-12-26T05:23:19.403Z,12.800
2022-12-26T05:24:24.433Z,14.200
2022-12-26T05:25:22.325Z,11.800
2022-12-26T05:26:31.004Z,13.550
2022-12-26T05:27:21.081Z,14.700
2022-12-26T05:28:22.320Z,13.050
2022-12-26T05:29:24.935Z,14.350
2022-12-26T05:30:38.337Z,14.800
2022-12-26T05:31:27.212Z,15.150
2022-12-26T05:32:22.262Z,13.500
2022-12-26T05:33:30.612Z,14.150
2022-12-26T05:34:26.216Z,14.700
2022-12-26T05:35:23.358Z,14.450
2022-12-26T05:36:23.027Z,17.300
2022-12-26T05:37:31.234Z,18.500
2022-12-26T05:38:24.369Z,18.400
2022-12-26T05:39:20.300Z,14.500
2022-12-26T05:40:21.652Z,16.700
2022-12-26T05:41:37.216Z,19.600
2022-12-26T05:42:22.267Z,19.550
2022-12-26T05:43:23.123Z,16.900
2022-12-26T05:44:20.789Z,18.500
2022-12-26T05:45:21.729Z,16.750
2022-12-26T05:46:20.517Z,17.600
2022-12-26T05:47:32.350Z,17.950
2022-12-26T05:48:30.717Z,17.200
2022-12-26T05:49:22.118Z,18.400
2022-12-26T05:50:28.171Z,18.000
2022-12-26T05:51:20.206Z,14.750
2022-12-26T05:52:32.618Z,15.500
2022-12-26T05:53:20.271Z,15.850
2022-12-26T05:54:30.788Z,17.400
2022-12-26T05:55:26.633Z,12.650
2022-12-26T05:56:22.876Z,12.500
2022-12-26T05:57:23.492Z,12.700
2022-12-26T05:58:25.782Z,13.750
2022-12-26T05:59:28.643Z,16.350
2022-12-26T06:00:20.665Z,14.000
2022-12-26T06:01:31.815Z,13.050
2022-12-26T06:02:26.578Z,14.800
2022-12-26T06:03:22.768Z,10.200
2022-12-26T06:04:34.995Z,11.800
2022-12-26T06:05:30.664Z,13.450
2022-12-26T06:06:21.724Z,14.000
2022-12-26T06:07:20.628Z,17.000
2022-12-26T06:08:21.087Z,12.450
2022-12-26T06:09:28.039Z,13.400
2022-12-26T06:10:25.321Z,11.450
2022-12-26T06:11:32.377Z,17.100
2022-12-26T06:12:30.467Z,16.550
2022-12-26T06:13:26.312Z,15.600
2022-12-26T06:14:26.740Z,16.500
2022-12-26T06:15:30.533Z,15.200
2022-12-26T06:16:26.945Z,17.600
2022-12-26T06:17:24.451Z,13.950
2022-12-26T06:18:33.598Z,16.450
2022-12-26T06:19:28.305Z,15.300
2022-12-26T06:20:24.517Z,13.800
2022-12-26T06:21:24.237Z,17.650
2022-12-26T06:22:20.869Z,16.450
2022-12-26T06:23:28.217Z,14.600
2022-12-26T06:24:23.417Z,15.150
2022-12-26T06:25:22.852Z,14.700
2022-12-26T06:26:29.911Z,14.400
2022-12-26T06:27:24.418Z,15.800
2022-12-26T06:28:20.587Z,16.350
2022-12-26T06:29:24.986Z,13.500
2022-12-26T06:30:27.099Z,14.000
2022-12-26T06:31:23.780Z,14.200
2022-12-26T06:32:22.643Z,13.050
2022-12-26T06:33:28.232Z,13.700
2022-12-26T06:34:25.384Z,13.450
2022-12-26T06:35:21.016Z,18.300
2022-12-26T06:36:23.639Z,15.450
2022-12-26T06:37:22.218Z,13.050
2022-12-26T06:38:23.006Z,13.300
2022-12-26T06:39:24.203Z,14.550
2022-12-26T06:40:30.087Z,12.000
2022-12-26T06:41:24.258Z,16.000
2022-12-26T06:42:22.119Z,16.600
2022-12-26T06:43:27.105Z,14.300
2022-12-26T06:44:21.450Z,16.000
2022-12-26T06:45:22.311Z,15.300
2022-12-26T06:46:28.717Z,14.000
2022-12-26T06:47:29.244Z,13.600
2022-12-26T06:48:26.489Z,14.800
2022-12-26T06:49:20.576Z,14.900
2022-12-26T06:50:22.343Z,15.300
2022-12-26T06:51:28.280Z,17.000
2022-12-26T06:52:23.822Z,14.600
2022-12-26T06:53:30.471Z,14.200
2022-12-26T06:54:28.626Z,15.600
2022-12-26T06:55:24.668Z,15.450
2022-12-26T06:56:20.168Z,13.900
2022-12-26T06:57:25.300Z,13.800
2022-12-26T06:58:27.622Z,12.900
2022-12-26T06:59:23.557Z,14.700
2022-12-26T07:00:22.501Z,14.100
2022-12-26T07:01:20.327Z,16.500
2022-12-26T07:02:26.888Z,13.100
2022-12-26T07:03:21.515Z,11.750
2022-12-26T07:04:33.182Z,12.200
2022-12-26T07:05:26.553Z,15.000
2022-12-26T07:06:24.781Z,12.900
2022-12-26T07:07:25.702Z,13.000
2022-12-26T07:08:23.314Z,13.500
2022-12-26T07:09:31.499Z,11.700
2022-12-26T07:10:25.082Z,12.200
2022-12-26T07:11:32.906Z,15.000
2022-12-26T07:12:26.561Z,14.700
2022-12-26T07:13:24.470Z,12.600
2022-12-26T07:14:21.958Z,12.050
2022-12-26T07:15:22.685Z,15.500
2022-12-26T07:16:24.644Z,14.600
2022-12-26T07:17:20.628Z,14.650
2022-12-26T07:18:30.480Z,13.000
2022-12-26T07:19:22.629Z,15.300
2022-12-26T07:20:22.734Z,12.650
2022-12-26T07:21:21.061Z,12.500
2022-12-26T07:22:29.525Z,14.100
2022-12-26T07:23:19.900Z,14.250
2022-12-26T07:24:20.590Z,15.200
2022-12-26T07:25:32.341Z,13.100
2022-12-26T07:26:26.404Z,16.000
2022-12-26T07:27:27.036Z,15.950
2022-12-26T07:28:31.083Z,13.900
2022-12-26T07:29:23.428Z,13.550
2022-12-26T07:30:24.481Z,14.100
2022-12-26T07:31:20.643Z,13.300
2022-12-26T07:32:31.300Z,17.700
2022-12-26T07:33:31.817Z,16.050
2022-12-26T07:34:27.854Z,16.000
2022-12-26T07:35:33.838Z,11.900
2022-12-26T07:36:30.556Z,12.600
2022-12-26T07:37:24.489Z,13.800
2022-12-26T07:38:22.016Z,13.350
2022-12-26T07:39:37.117Z,14.300
2022-12-26T07:40:27.413Z,13.100
2022-12-26T07:41:22.462Z,13.850
2022-12-26T07:42:32.679Z,14.900
2022-12-26T07:43:32.138Z,12.900
2022-12-26T07:44:27.494Z,15.300
2022-12-26T07:45:20.494Z,15.100
2022-12-26T07:46:35.884Z,15.300
2022-12-26T07:47:27.620Z,13.900
2022-12-26T07:48:22.837Z,13.600
2022-12-26T07:49:32.622Z,15.000
2022-12-26T07:50:28.771Z,11.100
2022-12-26T07:51:29.808Z,14.200
2022-12-26T07:52:20.926Z,16.700
2022-12-26T07:53:24.675Z,15.400
2022-12-26T07:54:26.755Z,14.300
2022-12-26T07:55:24.375Z,11.700
2022-12-26T07:56:33.593Z,14.550
2022-12-26T07:58:03.970Z,13.000
2022-12-26T07:58:26.452Z,14.250
2022-12-26T07:59:21.331Z,12.050
2022-12-26T08:00:26.901Z,16.200
2022-12-26T08:01:22.557Z,14.100
2022-12-26T08:02:22.983Z,13.700
2022-12-26T08:03:35.328Z,13.900
2022-12-26T08:04:28.658Z,15.000
2022-12-26T08:05:26.068Z,14.100
2022-12-26T08:06:21.363Z,13.700
2022-12-26T08:07:21.757Z,12.350
2022-12-26T08:08:26.868Z,13.150
2022-12-26T08:09:23.993Z,12.350
2022-12-26T08:10:34.167Z,15.050
2022-12-26T08:11:29.470Z,12.900
2022-12-26T08:12:27.866Z,13.700
2022-12-26T08:13:20.749Z,12.100
2022-12-26T08:14:25.935Z,12.800
2022-12-26T08:15:28.617Z,13.550
2022-12-26T08:16:22.745Z,12.800
2022-12-26T08:17:19.359Z,13.950
2022-12-26T08:18:32.565Z,14.300
2022-12-26T08:19:24.639Z,12.100
2022-12-26T08:20:21.245Z,13.550
2022-12-26T08:21:33.773Z,12.700
2022-12-26T08:22:22.816Z,12.550
2022-12-26T08:23:25.735Z,12.400
2022-12-26T08:24:22.416Z,13.400
2022-12-26T08:25:28.395Z,15.050
2022-12-26T08:26:26.280Z,16.300
2022-12-26T08:27:20.607Z,14.800
2022-12-26T08:28:30.398Z,10.950
2022-12-26T08:29:29.547Z,12.900
2022-12-26T08:30:19.399Z,12.800
2022-12-26T08:31:30.822Z,13.750
2022-12-26T08:32:30.018Z,15.150
2022-12-26T08:33:24.475Z,15.650
2022-12-26T08:34:22.054Z,12.800
2022-12-26T08:35:20.439Z,13.750
2022-12-26T08:36:26.595Z,12.900
2022-12-26T08:37:26.469Z,13.200
2022-12-26T08:38:31.858Z,12.950
2022-12-26T08:39:21.719Z,12.500
2022-12-26T08:40:41.992Z,15.500
2022-12-26T08:41:21.658Z,12.400
2022-12-26T08:42:23.509Z,14.900
2022-12-26T08:44:26.935Z,15.100
2022-12-26T08:44:28.861Z,16.050
2022-12-26T08:45:21.240Z,15.050
2022-12-26T08:46:24.728Z,18.000
2022-12-26T08:47:24.495Z,16.000
2022-12-26T08:48:21.249Z,14.300
2022-12-26T08:49:28.341Z,13.100
2022-12-26T08:50:26.823Z,14.500
2022-12-26T08:51:24.201Z,16.100
2022-12-26T08:52:24.805Z,14.100
2022-12-26T08:53:21.458Z,11.900
2022-12-26T08:54:25.997Z,14.300
2022-12-26T08:55:20.896Z,14.850
2022-12-26T08:56:32.422Z,15.200
2022-12-26T08:57:27.289Z,14.000
2022-12-26T08:58:22.892Z,13.100
2022-12-26T08:59:28.928Z,10.400
2022-12-26T09:00:25.605Z,13.550
2022-12-26T09:01:27.129Z,12.400
2022-12-26T09:02:35.031Z,14.300
2022-12-26T09:03:32.811Z,14.000
2022-12-26T09:04:20.747Z,12.800
2022-12-26T09:05:22.897Z,13.200
2022-12-26T09:06:40.400Z,13.300
2022-12-26T09:07:28.669Z,14.050
2022-12-26T09:08:24.115Z,12.600
2022-12-26T09:09:24.426Z,12.750
2022-12-26T09:10:30.652Z,11.350
2022-12-26T09:11:22.644Z,11.700
2022-12-26T09:12:24.437Z,11.100
2022-12-26T09:13:38.325Z,13.100
2022-12-26T09:14:30.735Z,12.700
2022-12-26T09:15:25.292Z,14.050
2022-12-26T09:16:20.856Z,12.100
2022-12-26T09:17:21.149Z,11.200
2022-12-26T09:18:26.612Z,12.350
2022-12-26T09:19:22.717Z,11.900
2022-12-26T09:20:35.180Z,12.150
2022-12-26T09:21:28.574Z,11.800
2022-12-26T09:22:21.907Z,12.600
2022-12-26T09:23:21.269Z,13.100
2022-12-26T09:24:25.163Z,14.400
2022-12-26T09:25:28.735Z,13.150
2022-12-26T09:26:24.123Z,18.400
2022-12-26T09:27:46.645Z,13.300
2022-12-26T09:28:29.907Z,13.750
2022-12-26T09:29:24.644Z,13.650
2022-12-26T09:30:23.946Z,13.100
2022-12-26T09:31:34.667Z,13.150
2022-12-26T09:32:22.023Z,14.200
2022-12-26T09:33:22.672Z,12.500
2022-12-26T09:34:34.548Z,13.100
2022-12-26T09:35:28.400Z,13.200
2022-12-26T09:36:28.519Z,11.500
2022-12-26T09:37:20.693Z,12.600
2022-12-26T09:38:21.800Z,13.100
2022-12-26T09:39:35.551Z,12.400
2022-12-26T09:40:22.751Z,10.100
2022-12-26T09:41:34.593Z,10.700
2022-12-26T09:42:28.998Z,13.000
2022-12-26T09:43:26.312Z,14.050
2022-12-26T09:44:20.509Z,13.000
2022-12-26T09:45:25.149Z,11.800
2022-12-26T09:46:28.277Z,11.800
2022-12-26T09:47:24.666Z,11.900
2022-12-26T09:48:34.334Z,11.900
2022-12-26T09:49:29.633Z,12.700
2022-12-26T09:50:26.135Z,10.600
2022-12-26T09:51:20.560Z,9.850
2022-12-26T09:52:34.377Z,10.200
2022-12-26T09:53:23.223Z,11.950
2022-12-26T09:54:22.490Z,10.000
2022-12-26T09:55:21.168Z,10.650
2022-12-26T09:57:01.942Z,10.100
2022-12-26T09:57:24.950Z,11.850
2022-12-26T09:58:22.598Z,10.100
2022-12-26T09:59:32.882Z,11.750
2022-12-26T10:00:29.460Z,12.850
2022-12-26T10:01:23.021Z,11.000
2022-12-26T10:02:26.885Z,12.100
2022-12-26T10:03:28.743Z,11.600
2022-12-26T10:04:29.557Z,14.100
2022-12-26T10:05:25.776Z,12.050
2022-12-26T10:06:30.639Z,10.200
2022-12-26T10:07:32.984Z,9.400
2022-12-26T10:08:22.902Z,9.800
2022-12-26T10:09:20.896Z,10.800
2022-12-26T10:10:24.484Z,13.300
2022-12-26T10:11:24.830Z,10.700
2022-12-26T10:12:22.455Z,15.000
2022-12-26T10:13:43.196Z,11.700
2022-12-26T10:14:27.340Z,10.500
2022-12-26T10:15:24.924Z,11.650
2022-12-26T10:16:20.014Z,11.950
2022-12-26T10:17:30.410Z,9.300
2022-12-26T10:18:20.142Z,10.550
2022-12-26T10:19:20.845Z,11.200
2022-12-26T10:20:32.753Z,11.750
2022-12-26T10:21:26.386Z,12.650
2022-12-26T10:22:22.937Z,11.500
2022-12-26T10:23:24.187Z,10.450
2022-12-26T10:24:34.831Z,9.800
2022-12-26T10:25:30.249Z,11.800
2022-12-26T10:26:23.178Z,12.600
2022-12-26T10:27:23.135Z,12.650
2022-12-26T10:28:26.690Z,12.200
2022-12-26T10:29:37.903Z,14.500
2022-12-26T10:30:29.293Z,14.400
2022-12-26T10:31:20.823Z,11.450
2022-12-26T10:32:26.054Z,12.200
2022-12-26T10:33:21.778Z,12.900
2022-12-26T10:34:24.676Z,9.800
2022-12-26T10:35:27.850Z,10.950
2022-12-26T10:36:22.910Z,11.350
2022-12-26T10:37:32.461Z,11.700
2022-12-26T10:38:25.596Z,12.250
2022-12-26T10:39:24.854Z,12.100
2022-12-26T10:40:20.780Z,10.800
2022-12-26T10:41:27.515Z,10.800
2022-12-26T10:42:26.344Z,8.900
2022-12-26T10:43:23.646Z,9.950
2022-12-26T10:44:37.724Z,11.200
2022-12-26T10:45:22.699Z,12.300
2022-12-26T10:46:24.686Z,11.600
2022-12-26T10:47:20.725Z,11.200
2022-12-26T10:48:25.185Z,12.600
2022-12-26T10:49:23.381Z,12.150
2022-12-26T10:50:27.591Z,9.600
2022-12-26T10:51:34.419Z,10.600
2022-12-26T10:52:26.036Z,11.900
2022-12-26T10:53:27.460Z,9.200
2022-12-26T10:54:20.633Z,10.850
2022-12-26T10:55:31.216Z,12.100
2022-12-26T10:56:22.323Z,11.700
2022-12-26T10:57:22.546Z,9.250
2022-12-26T10:58:34.318Z,14.500
2022-12-26T10:59:28.994Z,10.600
2022-12-26T11:00:19.828Z,11.900
2022-12-26T11:01:24.346Z,12.100
2022-12-26T11:02:35.362Z,11.950
2022-12-26T11:03:27.059Z,9.200
2022-12-26T11:04:44.503Z,10.100
2022-12-26T11:06:25.018Z,10.100
2022-12-26T11:06:27.062Z,11.300
2022-12-26T11:07:25.105Z,11.400
2022-12-26T11:08:22.637Z,12.750
2022-12-26T11:09:19.881Z,12.350
2022-12-26T11:10:28.936Z,9.950
2022-12-26T11:11:22.922Z,12.400
2022-12-26T11:12:35.043Z,11.900
2022-12-26T11:13:28.793Z,11.900
2022-12-26T11:14:23.838Z,11.200
2022-12-26T11:15:20.974Z,9.850
2022-12-26T11:16:23.920Z,9.450
2022-12-26T11:17:22.759Z,10.600
2022-12-26T11:18:23.550Z,10.350
2022-12-26T11:19:34.969Z,10.200
2022-12-26T11:20:29.591Z,14.300
2022-12-26T11:21:24.604Z,10.550
2022-12-26T11:22:20.898Z,9.000
2022-12-26T11:23:31.857Z,10.200
2022-12-26T11:24:21.010Z,12.100
2022-12-26T11:25:20.274Z,10.150
2022-12-26T11:26:24.394Z,9.200
2022-12-26T11:27:28.616Z,10.600
2022-12-26T11:28:28.846Z,10.900
2022-12-26T11:29:20.953Z,10.600
2022-12-26T11:30:33.843Z,13.300
2022-12-26T11:31:26.490Z,9.350
2022-12-26T11:32:22.898Z,11.400
2022-12-26T11:33:29.576Z,9.650
2022-12-26T11:34:20.863Z,11.350
2022-12-26T11:35:25.324Z,11.800
2022-12-26T11:36:36.524Z,10.650
2022-12-26T11:37:36.766Z,10.000
2022-12-26T11:38:30.497Z,10.500
2022-12-26T11:39:25.358Z,9.100
2022-12-26T11:40:28.808Z,9.250
2022-12-26T11:41:26.454Z,10.600
2022-12-26T11:42:24.621Z,10.200
2022-12-26T11:43:20.788Z,10.200
2022-12-26T11:44:33.125Z,9.650
2022-12-26T11:45:20.786Z,10.800
2022-12-26T11:46:30.873Z,10.250
2022-12-26T11:47:37.382Z,9.350
2022-12-26T11:48:29.127Z,9.800
2022-12-26T11:49:26.423Z,10.350
2022-12-26T11:50:23.341Z,9.700
2022-12-26T11:51:25.658Z,10.300
2022-12-26T11:52:28.300Z,10.200
2022-12-26T11:53:22.644Z,9.300
2022-12-26T11:54:23.326Z,10.700
2022-12-26T11:55:44.286Z,8.750
2022-12-26T11:56:26.590Z,9.200
2022-12-26T11:57:21.254Z,9.450
2022-12-26T11:58:32.467Z,9.000
2022-12-26T11:59:28.220Z,9.700
2022-12-26T12:00:23.141Z,10.850
2022-12-26T12:01:21.473Z,9.800
2022-12-26T12:02:22.199Z,7.900
2022-12-26T12:03:24.923Z,10.100
2022-12-26T12:04:22.097Z,13.000
2022-12-26T12:05:35.157Z,11.750
2022-12-26T12:06:27.722Z,10.500
2022-12-26T12:07:22.609Z,9.900
2022-12-26T12:08:26.007Z,11.750
2022-12-26T12:09:23.736Z,9.300
2022-12-26T12:10:24.988Z,9.700
2022-12-26T12:11:20.693Z,9.450
2022-12-26T12:12:21.191Z,9.800
2022-12-26T12:13:19.750Z,8.900
2022-12-26T12:14:24.921Z,9.950
2022-12-26T12:15:27.496Z,10.000
2022-12-26T12:16:28.947Z,11.100
2022-12-26T12:17:22.017Z,10.000
2022-12-26T12:18:20.992Z,8.900
2022-12-26T12:19:25.619Z,10.200
2022-12-26T12:20:26.804Z,10.400
2022-12-26T12:21:24.895Z,11.500
2022-12-26T12:22:31.854Z,11.150
2022-12-26T12:23:32.935Z,11.300
2022-12-26T12:24:25.940Z,10.850
2022-12-26T12:25:21.243Z,9.600
2022-12-26T12:26:25.539Z,11.950
2022-12-26T12:27:23.830Z,11.050
2022-12-26T12:28:22.900Z,11.400
2022-12-26T12:29:33.810Z,11.100
2022-12-26T12:30:21.893Z,10.800
2022-12-26T12:31:24.899Z,12.200
2022-12-26T12:32:21.971Z,9.500
2022-12-26T12:33:30.633Z,10.850
2022-12-26T12:34:42.766Z,11.650
2022-12-26T12:35:19.705Z,14.100
2022-12-26T12:36:29.406Z,10.750
2022-12-26T12:37:23.467Z,11.200
2022-12-26T12:38:24.869Z,11.500